Time;durP1;ratioP1;P1;durP2;ratioP2;P2;SDS_P1;SDS_P2;PMS_P1;PMS_P2;Temp;Humidity;BMP_temperature;BMP_pressure;BME280_temperature;BME280_humidity;BME280_pressure;Samples;Min_cycle;Max_cycle;Signal;HPM_P1;HPM_P2
2024/01/11 00:02:04;;;;;;;30.53;19.30;;;;;;;-5.97;100.00;96842.31;7426372;19;20373;-91
2024/01/11 00:04:45;;;;;;;31.60;18.23;;;;;;;-6.08;100.00;96817.22;7428865;19;20391;-91
2024/01/11 00:07:26;;;;;;;32.80;20.37;;;;;;;-5.34;100.00;96936.09;7419015;19;20382;-92
2024/01/11 00:10:08;;;;;;;29.17;20.20;;;;;;;-6.25;100.00;96791.13;7406717;19;20388;-91
2024/01/11 00:12:49;;;;;;;47.67;19.27;;;;;;;-6.37;100.00;96769.59;7410697;19;20383;-92
2024/01/11 00:15:30;;;;;;;33.87;20.33;;;;;;;-5.79;100.00;96877.66;7413534;19;20410;-91
2024/01/11 00:18:12;;;;;;;31.77;17.47;;;;;;;-6.10;100.00;96824.28;7423456;19;20388;-92
2024/01/11 00:20:53;;;;;;;27.13;17.63;;;;;;;-6.00;100.00;96828.13;7429040;19;21255;-89
2024/01/11 00:23:34;;;;;;;26.57;17.73;;;;;;;-6.30;100.00;96778.91;7427409;19;20409;-91
2024/01/11 00:26:15;;;;;;;27.47;17.70;;;;;;;-5.89;100.00;96842.19;7429148;19;20385;-90
2024/01/11 00:28:56;;;;;;;35.40;21.40;;;;;;;-6.08;100.00;96807.00;7428626;19;20498;-89
2024/01/11 00:31:38;;;;;;;35.87;18.27;;;;;;;-6.59;100.00;96792.50;7427834;19;20425;-92
2024/01/11 00:34:19;;;;;;;24.33;16.83;;;;;;;-5.76;100.00;96908.00;7406231;19;20361;-92
2024/01/11 00:37:00;;;;;;;29.37;18.00;;;;;;;-6.53;100.00;96791.03;7402997;19;20870;-92
2024/01/11 00:39:41;;;;;;;28.70;17.77;;;;;;;-6.36;100.00;96782.19;7400254;19;20372;-92
2024/01/11 00:42:22;;;;;;;29.43;18.10;;;;;;;-5.93;100.00;96856.28;7399522;19;20389;-93
2024/01/11 00:45:04;;;;;;;36.20;19.90;;;;;;;-6.31;100.00;96785.00;7399071;19;21000;-92
2024/01/11 00:47:45;;;;;;;25.87;15.70;;;;;;;-5.91;100.00;96826.28;7399244;19;20834;-91
2024/01/11 00:50:26;;;;;;;26.80;17.50;;;;;;;-5.99;100.00;96857.81;7399885;19;20389;-93
2024/01/11 00:53:08;;;;;;;36.90;21.03;;;;;;;-6.41;100.00;96776.03;7397570;19;20430;-93
2024/01/11 00:55:49;;;;;;;30.43;20.00;;;;;;;-6.54;100.00;96780.03;7400417;19;20432;-92
2024/01/11 00:58:30;;;;;;;35.10;19.47;;;;;;;-5.70;100.00;96900.34;7401453;19;20381;-91
2024/01/11 01:01:12;;;;;;;28.27;18.23;;;;;;;-6.12;100.00;96849.22;7398146;19;20385;-91
2024/01/11 01:03:53;;;;;;;26.20;18.50;;;;;;;-6.14;100.00;96811.09;7397172;19;20408;-92
2024/01/11 01:06:34;;;;;;;36.40;18.23;;;;;;;-6.62;100.00;96769.91;7397851;19;20391;-92
2024/01/11 01:09:15;;;;;;;27.87;16.07;;;;;;;-6.52;100.00;96813.03;7397432;19;20475;-92
2024/01/11 01:11:56;;;;;;;26.47;15.67;;;;;;;-6.52;100.00;96861.53;7397045;19;20381;-92
2024/01/11 01:14:38;;;;;;;34.00;16.50;;;;;;;-6.20;100.00;96890.19;7398284;19;20409;-90
2024/01/11 01:17:19;;;;;;;29.20;18.40;;;;;;;-7.05;100.00;96758.00;7399955;19;20364;-91
2024/01/11 01:20:00;;;;;;;21.00;17.40;;;;;;;-6.65;100.00;96828.97;7397657;19;20385;-92
2024/01/11 01:22:41;;;;;;;28.53;17.07;;;;;;;-6.35;100.00;96862.13;7397623;19;20426;-93
2024/01/11 01:25:22;;;;;;;31.57;16.77;;;;;;;-6.52;100.00;96848.75;7397526;19;20377;-92
2024/01/11 01:28:03;;;;;;;23.63;16.47;;;;;;;-7.00;100.00;96827.91;7397369;19;20431;-90
2024/01/11 01:30:44;;;;;;;25.63;15.00;;;;;;;-6.30;100.00;96949.19;7397614;19;20793;-92
2024/01/11 01:33:28;;;;;;;29.43;17.20;;;;;;;-6.91;100.00;96857.47;7398036;19;20412;-91
2024/01/11 01:36:12;;;;;;;23.90;16.50;;;;;;;-6.46;100.00;96888.88;7397642;19;20476;-91
2024/01/11 01:38:54;;;;;;;29.73;16.63;;;;;;;-6.77;100.00;96835.47;7397543;19;20388;-92
2024/01/11 01:41:35;;;;;;;22.97;15.13;;;;;;;-6.69;100.00;96855.81;7397459;19;20408;-91
2024/01/11 01:44:16;;;;;;;29.87;14.50;;;;;;;-7.39;100.00;96756.78;7397282;19;20381;-92
2024/01/11 01:46:57;;;;;;;28.03;15.37;;;;;;;-7.02;100.00;96801.00;7396550;19;20858;-91
2024/01/11 01:49:38;;;;;;;25.73;18.70;;;;;;;-6.84;100.00;96801.47;7395547;19;20673;-90
2024/01/11 01:52:21;;;;;;;23.43;15.97;;;;;;;-6.24;100.00;96874.44;7395993;19;20771;-93
2024/01/11 01:55:03;;;;;;;28.60;16.80;;;;;;;-7.80;100.00;96652.75;7394888;19;20418;-91
2024/01/11 01:57:46;;;;;;;27.07;14.97;;;;;;;-7.12;100.00;96819.09;7396796;19;20862;-92
2024/01/11 02:00:27;;;;;;;26.97;16.80;;;;;;;-6.96;100.00;96831.72;7397152;19;20411;-90
2024/01/11 02:03:09;;;;;;;22.17;14.80;;;;;;;-7.16;100.00;96788.06;7396030;19;20714;-91
2024/01/11 02:05:51;;;;;;;19.73;14.77;;;;;;;-8.29;100.00;96654.97;7396427;19;20381;-90
2024/01/11 02:08:34;;;;;;;19.87;14.10;;;;;;;-7.54;100.00;96761.88;7397878;19;20401;-91
2024/01/11 02:11:16;;;;;;;30.43;16.00;;;;;;;-7.48;100.00;96762.94;7396293;19;20388;-91
2024/01/11 02:13:57;;;;;;;29.73;14.40;;;;;;;-6.50;100.00;96885.09;7394882;19;20385;-91
2024/01/11 02:16:38;;;;;;;36.93;16.17;;;;;;;-7.70;100.00;96698.34;7395598;19;20474;-91
2024/01/11 02:19:20;;;;;;;24.03;13.40;;;;;;;-7.50;100.00;96726.66;7395966;19;20847;-92
2024/01/11 02:22:08;;;;;;;28.83;15.73;;;;;;;-6.95;100.00;96810.34;7397020;19;20386;-91
2024/01/11 02:24:49;;;;;;;21.77;13.93;;;;;;;-7.03;100.00;96799.41;7399417;19;20353;-92
2024/01/11 02:27:30;;;;;;;24.83;14.27;;;;;;;-6.68;100.00;96872.72;7403749;19;20387;-91
2024/01/11 02:30:12;;;;;;;23.50;14.33;;;;;;;-7.77;100.00;96707.66;7400224;19;20397;-92
2024/01/11 02:32:53;;;;;;;25.80;14.53;;;;;;;-7.16;100.00;96800.81;7403672;19;20393;-91
2024/01/11 02:35:37;;;;;;;24.23;15.20;;;;;;;-6.90;100.00;96843.75;7403242;19;20392;-91
2024/01/11 02:38:18;;;;;;;22.53;15.43;;;;;;;-6.79;100.00;96877.44;7403982;19;20392;-91
2024/01/11 02:41:00;;;;;;;30.73;15.13;;;;;;;-6.95;100.00;96835.03;7404527;19;20388;-91
2024/01/11 02:43:41;;;;;;;22.93;14.30;;;;;;;-7.29;100.00;96792.22;7402386;19;20419;-92
2024/01/11 02:46:22;;;;;;;30.50;15.93;;;;;;;-7.44;100.00;96770.06;7406371;19;20361;-91
2024/01/11 02:49:03;;;;;;;20.27;14.10;;;;;;;-7.03;100.00;96837.66;7404658;19;20369;-90
2024/01/11 02:51:44;;;;;;;26.43;14.73;;;;;;;-7.17;100.00;96799.22;7422972;19;20397;-89
2024/01/11 02:54:25;;;;;;;27.37;14.93;;;;;;;-6.92;100.00;96827.84;7409946;19;20395;-93
2024/01/11 02:57:07;;;;;;;24.43;15.93;;;;;;;-7.94;100.00;96668.00;7404165;19;20680;-92
2024/01/11 02:59:49;;;;;;;28.27;15.17;;;;;;;-7.29;100.00;96794.78;7402549;19;20385;-92
2024/01/11 03:02:30;;;;;;;23.57;14.50;;;;;;;-7.57;100.00;96744.38;7400702;19;20404;-92
2024/01/11 03:05:14;;;;;;;20.30;13.67;;;;;;;-7.29;100.00;96776.94;7402434;19;20365;-92
2024/01/11 03:07:55;;;;;;;21.87;14.93;;;;;;;-6.92;100.00;96811.75;7401324;19;20379;-91
2024/01/11 03:10:40;;;;;;;20.43;14.30;;;;;;;-7.11;100.00;96805.41;7401435;19;20376;-91
2024/01/11 03:13:21;;;;;;;22.33;15.00;;;;;;;-7.22;100.00;96798.19;7400394;19;20384;-93
2024/01/11 03:16:03;;;;;;;19.00;13.03;;;;;;;-7.52;100.00;96780.34;7401794;19;20469;-91
2024/01/11 03:18:44;;;;;;;24.00;14.90;;;;;;;-7.52;100.00;96787.16;7402014;19;20496;-91
2024/01/11 03:21:25;;;;;;;23.00;14.27;;;;;;;-7.81;100.00;96740.28;7401053;19;20405;-92
2024/01/11 03:24:06;;;;;;;19.67;13.83;;;;;;;-7.44;100.00;96795.53;7400985;19;20871;-91
2024/01/11 03:26:49;;;;;;;39.17;14.30;;;;;;;-7.75;100.00;96741.38;7402965;19;20705;-91
2024/01/11 03:29:30;;;;;;;26.50;13.80;;;;;;;-6.95;100.00;96851.13;7399700;19;20377;-92
2024/01/11 03:32:13;;;;;;;18.93;12.27;;;;;;;-7.67;100.00;96730.31;7400411;19;20405;-92
2024/01/11 03:34:55;;;;;;;23.93;16.00;;;;;;;-7.25;100.00;96744.97;7402962;19;20440;-91
2024/01/11 03:37:36;;;;;;;25.13;16.00;;;;;;;-7.32;100.00;96749.25;7401314;19;20377;-91
2024/01/11 03:40:17;;;;;;;26.63;14.57;;;;;;;-7.50;100.00;96730.00;7402318;19;20907;-92
2024/01/11 03:42:59;;;;;;;23.37;15.47;;;;;;;-7.19;100.00;96772.34;7399265;19;20423;-92
2024/01/11 03:45:40;;;;;;;18.53;14.40;;;;;;;-7.26;100.00;96763.78;7401593;19;20432;-91
2024/01/11 03:48:22;;;;;;;27.13;17.93;;;;;;;-7.29;100.00;96771.81;7400902;19;20375;-92
2024/01/11 03:51:03;;;;;;;26.23;15.30;;;;;;;-7.59;100.00;96771.78;7401122;19;20389;-92
2024/01/11 03:53:44;;;;;;;26.70;15.00;;;;;;;-7.35;100.00;96824.31;7399611;19;20431;-91
2024/01/11 03:56:26;;;;;;;24.63;13.53;;;;;;;-8.33;100.00;96692.66;7400817;19;20389;-92
2024/01/11 03:59:07;;;;;;;20.93;13.80;;;;;;;-6.92;100.00;96876.28;7400802;19;20400;-93
2024/01/11 04:01:48;;;;;;;21.97;14.70;;;;;;;-7.50;100.00;96824.28;7402415;19;20373;-91
2024/01/11 04:04:29;;;;;;;28.53;15.00;;;;;;;-7.73;100.00;96813.31;7400077;19;20850;-92
2024/01/11 04:07:10;;;;;;;20.53;15.13;;;;;;;-7.93;100.00;96814.72;7399794;19;20459;-93
2024/01/11 04:09:51;;;;;;;25.37;15.37;;;;;;;-8.28;100.00;96765.97;7398897;19;20377;-90
2024/01/11 04:12:33;;;;;;;25.97;15.47;;;;;;;-8.14;100.00;96783.06;7399521;19;20412;-92
2024/01/11 04:15:14;;;;;;;21.27;14.30;;;;;;;-7.32;100.00;96897.88;7399471;19;20580;-92
2024/01/11 04:17:55;;;;;;;27.03;16.00;;;;;;;-8.22;100.00;96760.19;7399235;19;20448;-91
2024/01/11 04:20:36;;;;;;;27.93;15.97;;;;;;;-8.06;100.00;96775.34;7400222;19;20376;-92
2024/01/11 04:23:17;;;;;;;27.53;15.40;;;;;;;-8.03;100.00;96756.41;7398364;19;20443;-92
2024/01/11 04:25:58;;;;;;;25.60;17.00;;;;;;;-7.74;100.00;96791.34;7399256;19;20661;-92
2024/01/11 04:28:39;;;;;;;20.53;15.47;;;;;;;-7.06;100.00;96889.81;7398075;19;20380;-93
2024/01/11 04:31:20;;;;;;;26.20;16.00;;;;;;;-8.10;100.00;96758.84;7399604;19;20367;-91
2024/01/11 04:34:02;;;;;;;18.83;14.23;;;;;;;-8.02;100.00;96755.44;7397172;19;20405;-91
2024/01/11 04:36:43;;;;;;;26.83;14.17;;;;;;;-8.08;100.00;96771.38;7399314;19;20365;-93
2024/01/11 04:39:24;;;;;;;24.00;15.53;;;;;;;-8.09;100.00;96734.16;7399222;19;20377;-93
2024/01/11 04:42:05;;;;;;;28.50;18.13;;;;;;;-8.16;100.00;96697.66;7398131;19;20431;-91
2024/01/11 04:44:46;;;;;;;29.57;25.00;;;;;;;-7.72;100.00;96784.34;7399486;19;20394;-90
2024/01/11 04:47:28;;;;;;;22.17;15.47;;;;;;;-8.46;100.00;96737.44;7396983;19;20394;-91
2024/01/11 04:50:09;;;;;;;39.43;25.53;;;;;;;-7.21;100.00;96894.88;7397208;19;20388;-92
2024/01/11 04:52:50;;;;;;;28.03;19.17;;;;;;;-7.98;100.00;96733.75;7399237;19;20422;-91
2024/01/11 04:55:31;;;;;;;28.63;19.00;;;;;;;-7.84;100.00;96771.22;7396018;19;20439;-91
2024/01/11 04:58:12;;;;;;;27.80;15.33;;;;;;;-8.34;100.00;96719.06;7398650;19;20417;-91
2024/01/11 05:00:53;;;;;;;30.13;25.30;;;;;;;-7.98;100.00;96754.13;7400418;19;20349;-93
2024/01/11 05:03:35;;;;;;;26.47;16.07;;;;;;;-7.92;100.00;96737.38;7398963;19;20388;-92
2024/01/11 05:06:17;;;;;;;22.60;18.60;;;;;;;-8.00;100.00;96722.97;7398591;19;20708;-92
2024/01/11 05:08:59;;;;;;;33.73;22.30;;;;;;;-8.08;100.00;96728.91;7399208;19;20365;-92
2024/01/11 05:11:40;;;;;;;32.87;24.80;;;;;;;-7.72;100.00;96789.41;7398095;19;20391;-92
2024/01/11 05:14:21;;;;;;;38.47;19.53;;;;;;;-7.71;100.00;96780.81;7399276;19;20421;-92
2024/01/11 05:17:02;;;;;;;32.17;16.63;;;;;;;-7.67;100.00;96804.97;7400398;19;20385;-92
2024/01/11 05:19:43;;;;;;;27.10;16.50;;;;;;;-8.24;100.00;96730.78;7400154;19;20708;-93
2024/01/11 05:22:24;;;;;;;26.77;15.80;;;;;;;-8.24;100.00;96748.59;7398522;19;20412;-91
2024/01/11 05:25:06;;;;;;;30.17;16.53;;;;;;;-8.34;100.00;96753.91;7398434;19;20357;-91
2024/01/11 05:27:47;;;;;;;29.37;18.77;;;;;;;-7.82;100.00;96832.94;7398237;19;20693;-91
2024/01/11 05:30:31;;;;;;;28.60;16.97;;;;;;;-7.27;100.00;96915.16;7397645;19;20377;-90
2024/01/11 05:33:12;;;;;;;36.80;20.10;;;;;;;-8.56;100.00;96759.78;7396513;19;20910;-91
2024/01/11 05:35:53;;;;;;;28.47;17.27;;;;;;;-8.72;100.00;96761.47;7397591;19;20380;-93
2024/01/11 05:38:43;;;;;;;31.20;17.77;;;;;;;-8.67;100.00;96760.94;7399419;19;20411;-92
2024/01/11 05:41:24;;;;;;;28.57;15.93;;;;;;;-8.16;100.00;96807.88;7398346;19;20395;-92
2024/01/11 05:44:06;;;;;;;20.40;14.10;;;;;;;-8.24;100.00;96779.94;7398158;19;20403;-91
2024/01/11 05:46:47;;;;;;;34.57;18.17;;;;;;;-8.37;100.00;96759.34;7398143;19;20377;-92
2024/01/11 05:49:28;;;;;;;25.80;15.20;;;;;;;-8.43;100.00;96748.09;7396174;19;20373;-92
2024/01/11 05:52:09;;;;;;;21.83;15.50;;;;;;;-8.70;100.00;96759.56;7397276;19;20707;-85
2024/01/11 05:54:50;;;;;;;24.77;17.00;;;;;;;-8.37;100.00;96744.88;7394216;19;20774;-85
2024/01/11 05:57:32;;;;;;;26.17;16.57;;;;;;;-8.23;100.00;96720.44;7397599;19;20349;-86
2024/01/11 06:00:14;;;;;;;27.43;17.90;;;;;;;-8.66;100.00;96674.31;7400214;19;20664;-86
2024/01/11 06:02:55;;;;;;;23.63;17.37;;;;;;;-7.64;100.00;96814.84;7402051;19;20421;-86
2024/01/11 06:05:36;;;;;;;26.43;16.60;;;;;;;-9.06;100.00;96672.03;7403084;19;20386;-86
2024/01/11 06:08:17;;;;;;;27.83;16.47;;;;;;;-8.71;100.00;96741.94;7402037;19;20384;-86
2024/01/11 06:11:01;;;;;;;32.83;16.93;;;;;;;-8.20;100.00;96849.09;7402312;19;20882;-85
2024/01/11 06:13:42;;;;;;;29.07;17.00;;;;;;;-8.66;100.00;96787.97;7400293;19;20404;-86
2024/01/11 06:16:24;;;;;;;30.17;19.00;;;;;;;-8.26;100.00;96853.13;7402701;19;20393;-86
2024/01/11 06:19:07;;;;;;;34.83;19.90;;;;;;;-8.45;100.00;96830.59;7402242;19;20754;-85
2024/01/11 06:21:48;;;;;;;35.70;21.40;;;;;;;-8.35;100.00;96832.00;7402554;19;20389;-86
2024/01/11 06:24:29;;;;;;;35.27;21.57;;;;;;;-8.67;100.00;96804.97;7403019;19;20392;-86
2024/01/11 06:27:10;;;;;;;31.50;18.47;;;;;;;-8.41;100.00;96799.59;7402644;19;20369;-86
2024/01/11 06:29:52;;;;;;;35.03;19.40;;;;;;;-7.81;100.00;96859.22;7399451;19;20389;-86
2024/01/11 06:32:33;;;;;;;32.73;18.03;;;;;;;-8.37;100.00;96744.06;7400934;19;20400;-86
2024/01/11 06:35:14;;;;;;;35.80;20.33;;;;;;;-7.49;100.00;96889.56;7401366;19;20414;-86
2024/01/11 06:37:55;;;;;;;35.83;18.97;;;;;;;-8.14;100.00;96761.91;7402254;19;20384;-86
2024/01/11 06:40:36;;;;;;;25.47;16.77;;;;;;;-8.33;100.00;96768.22;7401963;19;20369;-86
2024/01/11 06:43:17;;;;;;;33.97;17.30;;;;;;;-9.00;100.00;96696.78;7399832;19;20404;-86
2024/01/11 06:46:05;;;;;;;21.93;15.50;;;;;;;-8.39;100.00;96761.25;7401060;19;20377;-86
2024/01/11 06:48:46;;;;;;;29.10;15.20;;;;;;;-8.30;100.00;96882.41;7400181;19;20897;-86
2024/01/11 06:51:27;;;;;;;28.53;17.60;;;;;;;-7.74;100.00;96960.25;7400856;19;20479;-86
2024/01/11 06:54:08;;;;;;;31.37;16.70;;;;;;;-7.37;100.00;96947.78;7400040;19;20425;-86
2024/01/11 06:57:01;;;;;;;30.83;16.70;;;;;;;-7.62;100.00;96919.91;7400874;19;20387;-85
2024/01/11 06:59:43;;;;;;;25.77;16.93;;;;;;;-8.35;100.00;96826.13;7402653;19;20838;-93
2024/01/11 07:02:25;;;;;;;27.33;19.37;;;;;;;-7.64;100.00;96926.94;7401386;19;20434;-92
2024/01/11 07:05:06;;;;;;;30.23;19.17;;;;;;;-8.41;100.00;96803.91;7403599;19;20376;-91
2024/01/11 07:07:47;;;;;;;35.17;21.80;;;;;;;-8.85;100.00;96753.59;7403301;19;20384;-92
2024/01/11 07:10:28;;;;;;;28.63;20.23;;;;;;;-8.31;100.00;96873.19;7431530;19;20396;-91
2024/01/11 07:13:11;;;;;;;31.97;18.13;;;;;;;-8.79;100.00;96829.19;7430793;19;20412;-91
2024/01/11 07:15:55;;;;;;;25.37;17.20;;;;;;;-8.16;100.00;96917.34;7430118;19;20393;-92
2024/01/11 07:18:36;;;;;;;31.50;19.43;;;;;;;-7.96;100.00;96940.63;7427052;19;20388;-91
2024/01/11 07:21:31;;;;;;;26.97;19.13;;;;;;;-8.57;100.00;96834.50;7403810;19;20408;-91
2024/01/11 07:24:12;;;;;;;35.43;18.27;;;;;;;-8.55;100.00;96853.72;7402071;19;20348;-91
2024/01/11 07:26:53;;;;;;;25.00;18.20;;;;;;;-8.39;100.00;96863.03;7402351;19;20372;-91
2024/01/11 07:29:35;;;;;;;35.30;18.10;;;;;;;-8.53;100.00;96839.09;7400226;19;20846;-92
2024/01/11 07:32:16;;;;;;;31.90;19.87;;;;;;;-7.98;100.00;96913.75;7402897;19;20421;-91
2024/01/11 07:34:57;;;;;;;28.07;18.10;;;;;;;-8.05;100.00;96928.91;7402501;19;20376;-90
2024/01/11 07:37:41;;;;;;;38.60;21.70;;;;;;;-8.29;100.00;96871.28;7402042;19;20369;-91
2024/01/11 07:40:23;;;;;;;28.93;18.53;;;;;;;-8.14;100.00;96905.25;7402199;19;20383;-92
2024/01/11 07:43:04;;;;;;;32.60;19.53;;;;;;;-8.49;100.00;96849.72;7400149;19;20417;-92
2024/01/11 07:45:45;;;;;;;34.77;18.70;;;;;;;-8.53;100.00;96854.34;7401302;19;20372;-91
2024/01/11 07:48:26;;;;;;;53.33;36.47;;;;;;;-7.88;100.00;96901.59;7400647;19;20356;-91
2024/01/11 07:51:07;;;;;;;49.67;29.27;;;;;;;-8.26;100.00;96852.31;7401157;19;20390;-92
2024/01/11 07:53:48;;;;;;;39.13;27.07;;;;;;;-8.17;100.00;96887.75;7400024;19;20495;-91
2024/01/11 07:56:37;;;;;;;52.87;33.27;;;;;;;-8.36;100.00;96852.53;7401861;19;20383;-91
2024/01/11 07:59:18;;;;;;;66.10;34.40;;;;;;;-8.06;100.00;96889.91;7401745;19;20382;-91
2024/01/11 08:01:59;;;;;;;35.97;23.90;;;;;;;-7.94;100.00;96882.69;7401002;19;20419;-91
2024/01/11 08:04:40;;;;;;;30.90;23.97;;;;;;;-7.36;100.00;96997.81;7400502;19;20445;-92
2024/01/11 08:07:21;;;;;;;32.33;25.00;;;;;;;-8.59;100.00;96760.09;7400728;19;20381;-91
2024/01/11 08:10:07;;;;;;;41.27;33.13;;;;;;;-7.67;100.00;96870.41;7398730;19;20392;-90
2024/01/11 08:12:48;;;;;;;38.80;30.77;;;;;;;-7.58;100.00;96859.22;7399339;19;20400;-92
2024/01/11 08:15:29;;;;;;;36.70;24.80;;;;;;;-7.24;100.00;96886.81;7400574;19;20377;-91
2024/01/11 08:18:10;;;;;;;36.37;20.93;;;;;;;-7.70;100.00;96871.56;7400361;19;20393;-92
2024/01/11 08:20:51;;;;;;;38.33;21.10;;;;;;;-7.63;100.00;96872.47;7400544;19;20794;-91
2024/01/11 08:23:32;;;;;;;36.23;22.77;;;;;;;-8.25;100.00;96780.09;7396629;19;20894;-93
2024/01/11 08:26:21;;;;;;;47.70;22.30;;;;;;;-8.14;100.00;96757.59;7400645;19;20378;-91
2024/01/11 08:29:04;;;;;;;26.70;15.90;;;;;;;-7.92;100.00;96739.91;7399404;19;20363;-90
2024/01/11 08:31:46;;;;;;;21.97;14.83;;;;;;;-7.76;100.00;96724.53;7399852;19;20484;-93
2024/01/11 08:34:27;;;;;;;23.40;14.50;;;;;;;-7.06;100.00;96861.75;7399671;19;20380;-90
2024/01/11 08:37:09;;;;;;;30.30;15.03;;;;;;;-7.20;100.00;96809.78;7400225;19;20866;-92
2024/01/11 08:39:50;;;;;;;32.83;21.83;;;;;;;-7.09;100.00;96848.59;7399331;19;20388;-92
2024/01/11 08:42:32;;;;;;;132.77;53.60;;;;;;;-8.72;100.00;96597.91;7398364;19;20408;-90
2024/01/11 08:45:17;;;;;;;38.27;23.03;;;;;;;-8.10;100.00;96656.22;7399613;19;20386;-91
2024/01/11 08:47:58;;;;;;;29.37;16.93;;;;;;;-6.62;100.00;96876.31;7399649;19;20464;-92
2024/01/11 08:50:40;;;;;;;26.60;16.00;;;;;;;-7.26;100.00;96759.50;7399736;19;20865;-91
2024/01/11 08:53:21;;;;;;;31.83;18.63;;;;;;;-7.09;100.00;96777.19;7397830;19;20405;-91
2024/01/11 08:56:02;;;;;;;30.47;16.77;;;;;;;-6.45;100.00;96841.97;7400048;19;20440;-90
2024/01/11 08:58:43;;;;;;;32.00;20.07;;;;;;;-6.51;100.00;96852.09;7400301;19;20391;-91
2024/01/11 09:01:25;;;;;;;34.13;21.43;;;;;;;-5.83;100.00;96948.78;7399616;19;20489;-90
2024/01/11 09:04:06;;;;;;;33.83;18.50;;;;;;;-6.94;100.00;96785.63;7399669;19;20365;-90
2024/01/11 09:06:47;;;;;;;36.17;21.23;;;;;;;-6.79;100.00;96816.22;7398691;19;20361;-90
2024/01/11 09:09:28;;;;;;;53.70;26.73;;;;;;;-6.29;100.00;96889.50;7398667;19;20388;-91
2024/01/11 09:12:09;;;;;;;48.20;28.37;;;;;;;-6.33;100.00;96847.41;7399306;19;20392;-91
2024/01/11 09:14:50;;;;;;;46.80;27.17;;;;;;;-5.90;100.00;96894.28;7398438;19;20446;-92
2024/01/11 09:17:32;;;;;;;48.53;27.27;;;;;;;-5.89;100.00;96813.31;7400740;19;20357;-90
2024/01/11 09:20:14;;;;;;;44.00;27.27;;;;;;;-5.20;100.00;96885.06;7398356;19;20409;-91
2024/01/11 09:22:55;;;;;;;58.33;29.63;;;;;;;-4.81;100.00;96872.56;7396856;19;20441;-91
2024/01/11 09:25:36;;;;;;;42.30;23.80;;;;;;;-5.19;100.00;96794.56;7398075;19;20368;-90
2024/01/11 09:28:17;;;;;;;50.37;25.70;;;;;;;-5.06;100.00;96779.28;7399076;19;20383;-91
2024/01/11 09:30:59;;;;;;;47.90;26.33;;;;;;;-4.56;100.00;96816.56;7398723;19;20385;-90
2024/01/11 09:33:42;;;;;;;43.73;25.83;;;;;;;-4.97;100.00;96762.03;7400379;19;20404;-90
2024/01/11 09:36:23;;;;;;;45.70;26.00;;;;;;;-4.51;100.00;96850.06;7405317;19;20366;-89
2024/01/11 09:39:08;;;;;;;41.83;22.77;;;;;;;-4.32;100.00;96883.63;7406144;19;20403;-90
2024/01/11 09:41:57;;;;;;;41.70;24.20;;;;;;;-4.50;100.00;96889.28;7405459;19;20352;-90
2024/01/11 09:44:39;;;;;;;52.77;28.20;;;;;;;-4.41;100.00;96856.63;7408246;19;20340;-90
2024/01/11 09:47:23;;;;;;;45.87;27.07;;;;;;;-4.63;100.00;96790.13;7406860;19;20408;-90
2024/01/11 09:50:05;;;;;;;50.67;25.80;;;;;;;-3.77;100.00;96925.47;7403372;19;20377;-90
2024/01/11 09:52:51;;;;;;;44.53;24.50;;;;;;;-3.70;100.00;96947.56;7404661;19;20408;-90
2024/01/11 09:55:32;;;;;;;34.73;22.57;;;;;;;-4.04;100.00;96884.38;7403531;19;20389;-90
2024/01/11 09:58:14;;;;;;;32.37;21.40;;;;;;;-3.96;100.00;96897.00;7405529;19;20347;-90
2024/01/11 10:00:59;;;;;;;28.07;17.27;;;;;;;-3.60;100.00;96911.28;7405916;19;20339;-90
2024/01/11 10:03:43;;;;;;;30.93;20.10;;;;;;;-3.57;100.00;96891.16;7402906;19;20404;-93
2024/01/11 10:06:26;;;;;;;44.57;22.07;;;;;;;-4.11;100.00;96804.13;7406048;19;20356;-89
2024/01/11 10:09:08;;;;;;;32.83;18.20;;;;;;;-3.12;100.00;96952.22;7404199;19;20385;-90
2024/01/11 10:11:50;;;;;;;32.43;20.30;;;;;;;-3.72;100.00;96789.75;7404178;19;20902;-90
2024/01/11 10:14:32;;;;;;;37.50;22.40;;;;;;;-3.10;100.00;96866.34;7404073;19;20696;-90
2024/01/11 10:17:13;;;;;;;39.30;21.60;;;;;;;-2.80;100.00;96877.00;7403913;19;20876;-90
2024/01/11 10:19:54;;;;;;;41.13;23.77;;;;;;;-2.63;100.00;96890.19;7403980;19;20384;-90
2024/01/11 10:22:36;;;;;;;30.23;19.97;;;;;;;-2.81;100.00;96808.66;7402333;19;20439;-90
2024/01/11 10:25:17;;;;;;;24.10;17.27;;;;;;;-2.26;100.00;96857.09;7403094;19;20380;-89
2024/01/11 10:27:59;;;;;;;26.00;14.90;;;;;;;-2.33;100.00;96815.19;7403541;19;20352;-90
2024/01/11 10:30:40;;;;;;;27.37;14.77;;;;;;;-2.47;100.00;96771.56;7403903;19;20373;-89
2024/01/11 10:33:22;;;;;;;16.77;13.23;;;;;;;-1.98;100.00;96801.00;7401589;19;20445;-90
2024/01/11 10:36:04;;;;;;;30.93;13.03;;;;;;;-1.66;100.00;96808.72;7403571;19;20680;-90
2024/01/11 10:38:47;;;;;;;23.20;14.47;;;;;;;-1.65;100.00;96821.38;7403838;19;20428;-90
2024/01/11 10:41:32;;;;;;;44.67;26.53;;;;;;;-1.80;100.00;96782.28;7403516;19;20714;-90
2024/01/11 10:44:22;;;;;;;92.17;50.53;;;;;;;-0.71;100.00;96936.34;7402844;19;20949;-90
2024/01/11 10:47:07;;;;;;;28.47;18.70;;;;;;;-0.55;100.00;96932.44;7401858;19;20373;-90
2024/01/11 10:49:52;;;;;;;30.37;17.50;;;;;;;-1.43;100.00;96808.97;7400514;19;20381;-89
2024/01/11 10:52:43;;;;;;;50.10;34.20;;;;;;;-1.33;100.00;96824.69;7402128;19;20384;-89
2024/01/11 10:55:25;;;;;;;15.67;13.07;;;;;;;-1.04;100.00;96831.00;7399955;19;20392;-89
2024/01/11 10:58:07;;;;;;;23.53;15.17;;;;;;;-0.99;100.00;96807.97;7401406;19;20387;-89
2024/01/11 11:00:54;;;;;;;16.47;12.30;;;;;;;-0.02;100.00;96934.50;7402299;19;20352;-89
2024/01/11 11:03:36;;;;;;;22.70;14.70;;;;;;;-0.73;100.00;96886.00;7399629;19;20396;-89
2024/01/11 11:06:20;;;;;;;19.63;13.87;;;;;;;-1.56;100.00;96740.38;7402609;19;20345;-89
2024/01/11 11:09:03;;;;;;;20.03;13.47;;;;;;;-1.43;100.00;96754.91;7401360;19;20380;-89
2024/01/11 11:11:46;;;;;;;20.07;13.07;;;;;;;-0.66;100.00;96819.75;7401697;19;20376;-89
2024/01/11 11:14:28;;;;;;;23.27;14.30;;;;;;;0.09;100.00;96933.75;7401801;19;20401;-89
2024/01/11 11:17:09;;;;;;;16.17;12.07;;;;;;;-0.25;100.00;96917.09;7401232;19;20855;-89
2024/01/11 11:19:52;;;;;;;20.40;14.00;;;;;;;-1.22;100.00;96800.84;7402963;19;20381;-89
2024/01/11 11:22:36;;;;;;;19.30;14.13;;;;;;;-1.54;100.00;96738.38;7400288;19;20365;-89
2024/01/11 11:25:26;;;;;;;21.13;13.00;;;;;;;-0.40;100.00;96827.19;7401570;19;20381;-89
2024/01/11 11:28:07;;;;;;;18.93;13.53;;;;;;;-0.87;100.00;96788.22;7401548;19;20377;-89
2024/01/11 11:30:53;;;;;;;18.67;11.60;;;;;;;-0.68;100.00;96827.69;7402014;19;20391;-89
2024/01/11 11:33:34;;;;;;;16.63;12.23;;;;;;;-0.80;100.00;96805.41;7399047;19;20404;-89
2024/01/11 11:36:17;;;;;;;16.03;10.87;;;;;;;0.04;100.00;96894.94;7401038;19;20376;-89
2024/01/11 11:39:00;;;;;;;15.70;12.23;;;;;;;-0.38;100.00;96799.41;7400582;19;20387;-89
2024/01/11 11:41:42;;;;;;;14.67;12.00;;;;;;;0.09;100.00;96877.00;7400459;19;20421;-89
2024/01/11 11:47:38;;;;;;;15.30;10.73;;;;;;;0.50;100.00;96880.66;7400124;19;20380;-89
2024/01/11 11:50:22;;;;;;;16.43;10.40;;;;;;;0.43;100.00;96857.50;7397107;19;20389;-89
2024/01/11 11:53:04;;;;;;;15.30;11.33;;;;;;;0.07;100.00;96795.66;7398073;19;20900;-89
2024/01/11 11:55:45;;;;;;;14.63;11.30;;;;;;;0.10;100.00;96793.44;7397194;19;20878;-88
2024/01/11 11:58:27;;;;;;;17.97;11.13;;;;;;;0.37;100.00;96817.09;7400449;19;20380;-89
2024/01/11 12:01:08;;;;;;;16.13;12.07;;;;;;;0.61;100.00;96854.84;7399852;19;20376;-88
2024/01/11 12:03:50;;;;;;;14.50;11.47;;;;;;;0.11;100.00;96792.44;7397157;19;20396;-88
2024/01/11 12:06:31;;;;;;;21.00;11.17;;;;;;;0.70;100.00;96882.97;7399515;19;20457;-89
2024/01/11 12:09:21;;;;;;;18.60;12.13;;;;;;;0.71;100.00;96869.03;7398175;19;20388;-89
2024/01/11 12:12:03;;;;;;;17.37;12.93;;;;;;;0.91;100.00;96885.81;7399096;19;20708;-89
2024/01/11 12:14:46;;;;;;;15.37;11.50;;;;;;;0.27;100.00;96749.72;7399632;19;20368;-89
2024/01/11 12:17:27;;;;;;;17.37;12.50;;;;;;;0.60;100.00;96764.69;7400912;19;20365;-89
2024/01/11 12:20:09;;;;;;;22.90;12.70;;;;;;;1.57;100.00;96893.50;7398687;19;20385;-86